createdAt,value
2023-12-01T00:01:57.810Z,22.80
2023-12-01T00:04:24.524Z,18.95
2023-12-01T00:06:51.417Z,19.88
2023-12-01T00:09:18.046Z,20.88
2023-12-01T00:11:44.649Z,19.52
2023-12-01T00:14:11.413Z,20.85
2023-12-01T00:16:38.013Z,22.58
2023-12-01T00:19:04.997Z,21.45
2023-12-01T00:21:31.527Z,21.35
2023-12-01T00:23:58.296Z,21.77
2023-12-01T00:26:24.959Z,23.95
2023-12-01T00:28:57.331Z,24.60
2023-12-01T00:31:24.181Z,24.75
2023-12-01T00:33:52.554Z,25.50
2023-12-01T00:36:19.147Z,25.17
2023-12-01T00:38:45.780Z,26.63
2023-12-01T00:41:12.542Z,25.88
2023-12-01T00:43:39.197Z,29.92
2023-12-01T00:46:06.032Z,30.02
2023-12-01T00:48:32.673Z,29.80
2023-12-01T00:50:59.192Z,31.55
2023-12-01T00:53:25.696Z,26.83
2023-12-01T00:55:52.833Z,27.30
2023-12-01T00:58:19.462Z,28.75
2023-12-01T01:00:46.134Z,28.85
2023-12-01T01:03:12.743Z,31.75
2023-12-01T01:05:39.425Z,30.60
2023-12-01T01:08:06.059Z,29.15
2023-12-01T01:10:32.905Z,30.13
2023-12-01T01:12:59.525Z,30.23
2023-12-01T01:15:26.054Z,33.65
2023-12-01T01:17:52.727Z,30.33
2023-12-01T01:20:19.395Z,31.83
2023-12-01T01:22:46.072Z,32.50
2023-12-01T01:25:12.671Z,33.83
2023-12-01T01:27:39.296Z,32.08
2023-12-01T01:30:06.599Z,36.08
2023-12-01T01:32:33.214Z,35.42
2023-12-01T01:34:59.679Z,40.15
2023-12-01T01:37:26.136Z,35.33
2023-12-01T01:39:52.720Z,41.42
2023-12-01T01:42:19.327Z,37.65
2023-12-01T01:44:45.944Z,45.00
2023-12-01T01:47:12.455Z,44.35
2023-12-01T01:49:39.328Z,46.00
2023-12-01T01:52:06.295Z,44.45
2023-12-01T01:54:33.312Z,40.83
2023-12-01T01:57:00.022Z,43.97
2023-12-01T01:59:26.553Z,45.25
2023-12-01T02:01:53.366Z,46.00
2023-12-01T02:04:20.391Z,44.92
2023-12-01T02:06:47.457Z,44.22
2023-12-01T02:09:14.577Z,46.42
2023-12-01T02:11:41.599Z,46.25
2023-12-01T02:14:08.207Z,45.53
2023-12-01T02:16:34.918Z,45.65
2023-12-01T02:19:01.559Z,42.40
2023-12-01T02:21:28.668Z,49.92
2023-12-01T02:23:56.634Z,47.42
2023-12-01T02:26:23.969Z,49.40
2023-12-01T02:28:50.677Z,42.60
2023-12-01T02:31:18.765Z,47.03
2023-12-01T02:33:45.310Z,48.08
2023-12-01T02:36:14.212Z,53.90
2023-12-01T02:38:40.778Z,50.83
2023-12-01T02:41:07.642Z,47.50
2023-12-01T02:43:39.105Z,47.28
2023-12-01T02:46:05.852Z,46.42
2023-12-01T02:48:34.011Z,49.50
2023-12-01T02:51:00.564Z,52.03
2023-12-01T02:53:27.017Z,46.50
2023-12-01T02:55:53.486Z,50.00
2023-12-01T02:58:20.156Z,49.55
2023-12-01T03:00:46.969Z,46.42
2023-12-01T03:03:13.628Z,47.08
2023-12-01T03:05:40.744Z,47.90
2023-12-01T03:08:07.559Z,50.42
2023-12-01T03:10:35.436Z,45.45
2023-12-01T03:13:02.216Z,45.65
2023-12-01T03:15:30.351Z,45.22
2023-12-01T03:17:56.963Z,41.25
2023-12-01T03:20:23.581Z,45.45
2023-12-01T03:22:53.006Z,49.47
2023-12-01T03:25:19.620Z,44.47
2023-12-01T03:27:48.898Z,47.85
2023-12-01T03:32:50.977Z,41.42
2023-12-01T03:35:22.372Z,47.83
2023-12-01T03:37:50.386Z,47.22
2023-12-01T03:40:17.183Z,44.10
2023-12-01T03:42:49.044Z,47.42
2023-12-01T03:45:16.470Z,46.47
2023-12-01T03:47:47.369Z,44.60
2023-12-01T03:50:14.748Z,46.63
2023-12-01T03:52:43.070Z,45.22
2023-12-01T03:55:10.933Z,48.08
2023-12-01T03:57:38.625Z,41.90
2023-12-01T04:00:14.374Z,40.78
2023-12-01T04:02:42.669Z,45.13
2023-12-01T04:05:10.329Z,46.97
2023-12-01T04:07:37.220Z,43.03
2023-12-01T04:10:11.597Z,42.30
2023-12-01T04:12:45.939Z,43.47
2023-12-01T04:15:18.981Z,42.10
2023-12-01T04:17:47.490Z,43.45
2023-12-01T04:20:29.296Z,42.20
2023-12-01T04:23:01.364Z,42.17
2023-12-01T04:25:28.780Z,50.20
2023-12-01T04:27:57.440Z,47.50
2023-12-01T04:30:24.946Z,48.35
2023-12-01T04:32:57.504Z,41.78
2023-12-01T04:35:30.522Z,42.63
2023-12-01T04:37:58.036Z,42.60
2023-12-01T04:40:25.630Z,37.83
2023-12-01T04:42:52.960Z,39.58
2023-12-01T04:45:25.978Z,35.05
2023-12-01T04:47:53.670Z,36.05
2023-12-01T04:50:22.328Z,32.78
2023-12-01T04:52:50.036Z,32.05
2023-12-01T04:55:18.870Z,31.98
2023-12-01T04:57:46.544Z,34.72
2023-12-01T05:00:21.946Z,31.73
2023-12-01T05:02:56.399Z,28.33
2023-12-01T05:05:26.111Z,36.13
2023-12-01T05:07:57.271Z,32.95
2023-12-01T05:10:31.087Z,32.15
2023-12-01T05:12:59.221Z,33.33
2023-12-01T05:15:27.373Z,31.45
2023-12-01T05:18:05.578Z,30.67
2023-12-01T05:20:33.214Z,29.25
2023-12-01T05:23:01.651Z,34.15
2023-12-01T05:25:33.282Z,29.38
2023-12-01T05:28:01.108Z,32.22
2023-12-01T05:30:29.206Z,30.08
2023-12-01T05:32:57.109Z,32.92
2023-12-01T05:35:23.926Z,30.38
2023-12-01T05:37:51.656Z,30.00
2023-12-01T05:40:21.827Z,27.38
2023-12-01T05:42:49.679Z,34.97
2023-12-01T05:45:17.038Z,35.22
2023-12-01T05:47:45.545Z,35.22
2023-12-01T05:50:16.010Z,32.35
2023-12-01T05:52:43.875Z,34.03
2023-12-01T05:55:20.504Z,32.90
2023-12-01T05:57:50.266Z,41.80
2023-12-01T06:00:18.877Z,36.20
2023-12-01T06:02:46.197Z,37.00
2023-12-01T06:05:17.008Z,34.95
2023-12-01T06:07:45.534Z,34.92
2023-12-01T06:10:13.080Z,33.63
2023-12-01T06:12:40.523Z,38.50
2023-12-01T06:15:10.665Z,32.92
2023-12-01T06:17:42.860Z,30.63
2023-12-01T06:20:18.122Z,32.78
2023-12-01T06:22:48.843Z,33.22
2023-12-01T06:25:20.534Z,32.97
2023-12-01T06:27:47.861Z,31.92
2023-12-01T06:30:15.753Z,30.90
2023-12-01T06:32:43.311Z,29.15
2023-12-01T06:35:11.884Z,27.70
2023-12-01T06:37:42.971Z,24.85
2023-12-01T06:40:13.610Z,30.00
2023-12-01T06:42:41.392Z,30.27
2023-12-01T06:45:11.460Z,32.33
2023-12-01T06:47:39.493Z,24.38
2023-12-01T06:50:07.153Z,27.98
2023-12-01T06:52:35.317Z,32.60
2023-12-01T06:55:02.154Z,28.55
2023-12-01T06:57:28.653Z,28.67
2023-12-01T06:59:55.208Z,26.73
2023-12-01T07:02:21.925Z,25.20
2023-12-01T07:04:48.459Z,27.95
2023-12-01T07:07:15.087Z,30.30
2023-12-01T07:09:53.741Z,30.20
2023-12-01T07:12:25.364Z,30.75
2023-12-01T07:14:52.012Z,24.40
2023-12-01T07:17:18.689Z,29.25
2023-12-01T07:19:46.413Z,30.40
2023-12-01T07:22:13.002Z,28.13
2023-12-01T07:24:39.800Z,27.13
2023-12-01T07:27:06.283Z,27.95
2023-12-01T07:29:32.793Z,27.58
2023-12-01T07:32:00.894Z,28.85
2023-12-01T07:34:27.585Z,29.97
2023-12-01T07:36:54.197Z,29.20
2023-12-01T07:39:24.053Z,25.60
2023-12-01T07:41:51.245Z,29.15
2023-12-01T07:44:18.562Z,24.38
2023-12-01T07:49:13.641Z,27.27
2023-12-01T07:51:40.377Z,28.17
2023-12-01T07:54:07.067Z,26.55
2023-12-01T07:56:33.608Z,27.70
2023-12-01T07:59:00.224Z,28.60
2023-12-01T08:01:26.881Z,28.08
2023-12-01T08:03:53.555Z,29.20
2023-12-01T08:06:20.214Z,29.85
2023-12-01T08:08:46.774Z,29.00
2023-12-01T08:11:13.329Z,27.35
2023-12-01T08:13:39.890Z,25.48
2023-12-01T08:16:07.150Z,27.15
2023-12-01T08:18:33.916Z,27.45
2023-12-01T08:21:00.703Z,27.60
2023-12-01T08:23:27.332Z,24.60
2023-12-01T08:25:54.136Z,22.38
2023-12-01T08:28:20.607Z,28.55
2023-12-01T08:30:49.160Z,26.08
2023-12-01T08:33:16.384Z,24.52
2023-12-01T08:35:43.264Z,22.98
2023-12-01T08:38:11.282Z,25.77
2023-12-01T08:40:43.315Z,24.33
2023-12-01T08:43:10.978Z,23.67
2023-12-01T08:45:38.155Z,23.23
2023-12-01T08:48:05.892Z,22.42
2023-12-01T08:50:32.431Z,20.88
2023-12-01T08:52:59.096Z,21.08
2023-12-01T08:55:25.802Z,21.13
2023-12-01T08:57:52.374Z,21.27
2023-12-01T09:00:22.693Z,22.63
2023-12-01T09:02:51.246Z,22.15
2023-12-01T09:05:18.844Z,19.70
2023-12-01T09:07:48.207Z,19.33
2023-12-01T09:10:20.926Z,18.33
2023-12-01T09:12:47.612Z,20.35
2023-12-01T09:15:14.783Z,19.67
2023-12-01T09:17:41.359Z,18.17
2023-12-01T09:20:10.216Z,20.75
2023-12-01T09:22:40.595Z,18.90
2023-12-01T09:25:08.322Z,19.65
2023-12-01T09:27:38.748Z,18.23
2023-12-01T09:30:12.287Z,20.00
2023-12-01T09:32:39.116Z,19.60
2023-12-01T09:35:06.558Z,18.92
2023-12-01T09:37:33.778Z,19.95
2023-12-01T09:40:01.889Z,18.00
2023-12-01T09:44:58.742Z,19.00
2023-12-01T09:47:26.357Z,19.85
2023-12-01T09:49:53.344Z,22.45
2023-12-01T09:52:20.109Z,24.20
2023-12-01T09:55:06.898Z,29.23
2023-12-01T09:57:33.686Z,25.15
2023-12-01T10:00:00.821Z,22.30
2023-12-01T10:02:29.681Z,23.63
2023-12-01T10:05:02.206Z,30.15
2023-12-01T10:07:29.007Z,57.25
2023-12-01T10:09:55.773Z,48.85
2023-12-01T10:12:22.300Z,31.65
2023-12-01T10:14:48.994Z,23.92
2023-12-01T10:17:15.706Z,23.05
2023-12-01T10:19:49.383Z,19.63
2023-12-01T10:22:20.856Z,23.35
2023-12-01T10:24:58.182Z,24.27
2023-12-01T10:27:25.222Z,22.13
2023-12-01T10:29:51.915Z,21.50
2023-12-01T10:32:21.855Z,22.80
2023-12-01T10:34:50.176Z,24.33
2023-12-01T10:37:27.563Z,21.67
2023-12-01T10:39:58.074Z,27.67
2023-12-01T10:42:25.829Z,22.55
2023-12-01T10:44:53.812Z,24.10
2023-12-01T10:47:21.206Z,22.33
2023-12-01T10:49:49.625Z,24.40
2023-12-01T10:52:16.292Z,24.58
2023-12-01T10:54:43.525Z,22.25
2023-12-01T10:57:27.569Z,21.60
2023-12-01T10:59:56.732Z,24.00
2023-12-01T11:02:24.776Z,21.70
2023-12-01T11:04:51.585Z,23.08
2023-12-01T11:07:35.296Z,22.80
2023-12-01T11:10:08.337Z,22.02
2023-12-01T11:12:54.496Z,45.53
2023-12-01T11:15:24.969Z,62.58
2023-12-01T11:17:55.611Z,27.55
2023-12-01T11:20:42.476Z,21.75
2023-12-01T11:23:09.401Z,26.23
2023-12-01T11:25:45.005Z,19.73
2023-12-01T11:28:23.855Z,18.73
2023-12-01T11:31:09.236Z,21.63
2023-12-01T11:33:50.142Z,19.48
2023-12-01T11:36:24.882Z,21.17
2023-12-01T11:39:16.342Z,18.55
2023-12-01T11:41:43.043Z,18.02
2023-12-01T11:44:15.903Z,20.40
2023-12-01T11:46:42.825Z,17.63
2023-12-01T11:49:10.665Z,17.52
2023-12-01T11:51:37.619Z,18.35
2023-12-01T11:54:05.707Z,15.68
2023-12-01T11:56:35.323Z,17.27
2023-12-01T11:59:03.027Z,16.30
2023-12-01T12:01:31.317Z,16.42
2023-12-01T12:03:58.964Z,14.30
2023-12-01T12:06:26.799Z,16.45
2023-12-01T12:08:53.749Z,15.63
2023-12-01T12:11:21.061Z,14.77
2023-12-01T12:13:55.246Z,19.75
2023-12-01T12:16:23.466Z,17.27
2023-12-01T12:18:50.791Z,11.82
2023-12-01T12:21:17.698Z,18.77
2023-12-01T12:23:45.357Z,13.27
2023-12-01T12:26:19.892Z,19.48
2023-12-01T12:29:01.407Z,11.73
2023-12-01T12:31:31.034Z,14.52
2023-12-01T12:33:59.754Z,25.17
2023-12-01T12:36:28.232Z,17.55
2023-12-01T12:38:56.389Z,17.23
2023-12-01T12:41:30.913Z,20.58
2023-12-01T12:44:02.155Z,22.85
2023-12-01T12:46:30.235Z,14.90
2023-12-01T12:48:59.041Z,11.38
2023-12-01T12:51:27.537Z,19.60
2023-12-01T12:53:55.194Z,11.20
2023-12-01T12:56:22.976Z,11.10
2023-12-01T12:59:00.340Z,11.40
2023-12-01T13:01:27.895Z,11.98
2023-12-01T13:03:55.411Z,11.50
2023-12-01T13:06:22.347Z,12.82
2023-12-01T13:08:49.394Z,13.40
2023-12-01T13:11:16.739Z,12.18
2023-12-01T13:13:43.740Z,11.23
2023-12-01T13:16:10.825Z,10.57
2023-12-01T13:18:41.707Z,11.82
2023-12-01T13:21:10.148Z,10.95
2023-12-01T13:23:37.595Z,10.63
2023-12-01T13:26:04.924Z,10.25
2023-12-01T13:28:32.069Z,9.60
2023-12-01T13:30:58.748Z,10.15
2023-12-01T13:33:26.335Z,12.65
2023-12-01T13:35:53.337Z,11.00
2023-12-01T13:38:19.883Z,18.42
2023-12-01T13:40:46.554Z,10.13
2023-12-01T13:43:13.540Z,9.88
2023-12-01T13:45:40.238Z,8.25
2023-12-01T13:48:07.171Z,9.52
2023-12-01T13:50:33.839Z,10.27
2023-12-01T13:53:00.459Z,9.85
2023-12-01T13:55:27.299Z,9.32
2023-12-01T13:57:53.996Z,9.40
2023-12-01T14:00:21.081Z,8.98
2023-12-01T14:02:49.193Z,9.93
2023-12-01T14:05:18.080Z,8.55
2023-12-01T14:07:45.568Z,11.20
2023-12-01T14:10:12.732Z,11.07
2023-12-01T14:12:41.411Z,9.93
2023-12-01T14:15:08.467Z,11.23
2023-12-01T14:17:35.875Z,12.05
2023-12-01T14:20:04.485Z,10.18
2023-12-01T14:22:31.037Z,11.82
2023-12-01T14:24:57.697Z,10.93
2023-12-01T14:27:24.202Z,11.77
2023-12-01T14:29:51.120Z,11.80
2023-12-01T14:32:21.483Z,11.75
2023-12-01T14:34:51.229Z,11.73
2023-12-01T14:37:19.172Z,12.35
2023-12-01T14:39:46.632Z,11.48
2023-12-01T14:42:13.182Z,12.18
2023-12-01T14:44:40.988Z,11.95
2023-12-01T14:47:08.434Z,12.40
2023-12-01T14:49:35.438Z,12.02
2023-12-01T14:52:01.909Z,10.27
2023-12-01T14:54:28.529Z,11.07
2023-12-01T14:56:55.015Z,14.60
2023-12-01T14:59:21.635Z,16.65
2023-12-01T15:01:52.055Z,12.97
2023-12-01T15:04:18.757Z,10.82
2023-12-01T15:06:45.388Z,13.00
2023-12-01T15:09:15.198Z,12.75
2023-12-01T15:11:46.136Z,14.40
2023-12-01T15:14:13.159Z,11.80
2023-12-01T15:16:40.601Z,10.88
2023-12-01T15:19:08.529Z,12.30
2023-12-01T15:21:35.257Z,14.82
2023-12-01T15:24:02.136Z,11.32
2023-12-01T15:26:28.713Z,10.70
2023-12-01T15:28:55.653Z,11.57
2023-12-01T15:31:22.212Z,10.55
2023-12-01T15:33:49.710Z,13.82
2023-12-01T15:36:16.349Z,10.15
2023-12-01T15:38:42.912Z,12.10
2023-12-01T15:41:09.559Z,12.80
2023-12-01T15:43:37.249Z,12.25
2023-12-01T15:46:03.883Z,11.18
2023-12-01T15:48:30.510Z,13.55
2023-12-01T15:50:57.253Z,15.15
2023-12-01T15:53:24.251Z,14.02
2023-12-01T15:55:51.325Z,11.27
2023-12-01T15:58:17.777Z,13.25
2023-12-01T16:00:46.393Z,19.65
2023-12-01T16:03:15.380Z,14.48
2023-12-01T16:05:42.300Z,11.95
2023-12-01T16:08:09.108Z,13.65
2023-12-01T16:10:35.818Z,12.85
2023-12-01T16:13:02.276Z,15.75
2023-12-01T16:15:28.864Z,14.10
2023-12-01T16:17:55.476Z,10.95
2023-12-01T16:20:22.546Z,16.13
2023-12-01T16:22:49.156Z,20.33
2023-12-01T16:25:15.717Z,13.43
2023-12-01T16:27:42.275Z,12.93
2023-12-01T16:30:09.145Z,12.85
2023-12-01T16:32:39.787Z,14.73
2023-12-01T16:35:12.310Z,14.38
2023-12-01T16:37:38.987Z,10.93
2023-12-01T16:40:09.346Z,12.98
2023-12-01T16:42:36.835Z,11.98
2023-12-01T16:45:03.595Z,12.60
2023-12-01T16:47:30.691Z,11.32
2023-12-01T16:49:58.301Z,13.10
2023-12-01T16:52:25.211Z,11.55
2023-12-01T16:54:51.885Z,12.80
2023-12-01T16:57:18.832Z,16.10
2023-12-01T16:59:47.099Z,12.85
2023-12-01T17:02:13.625Z,10.23
2023-12-01T17:04:40.104Z,25.25
2023-12-01T17:07:09.827Z,10.98
2023-12-01T17:09:37.158Z,18.48
2023-12-01T17:12:04.050Z,9.95
2023-12-01T17:14:37.177Z,14.55
2023-12-01T17:17:04.853Z,10.25
2023-12-01T17:19:31.991Z,10.05
2023-12-01T17:21:58.926Z,10.32
2023-12-01T17:24:25.767Z,9.05
2023-12-01T17:26:52.653Z,11.10
2023-12-01T17:29:19.816Z,9.45
2023-12-01T17:31:48.190Z,11.38
2023-12-01T17:34:14.935Z,11.43
2023-12-01T17:36:44.693Z,11.43
2023-12-01T17:39:11.236Z,11.50
2023-12-01T17:41:37.758Z,8.77
2023-12-01T17:44:04.412Z,9.57
2023-12-01T17:46:30.967Z,9.80
2023-12-01T17:48:57.681Z,9.35
2023-12-01T17:51:24.412Z,9.35
2023-12-01T17:53:51.114Z,8.82
2023-12-01T17:56:20.372Z,9.50
2023-12-01T17:58:46.805Z,9.85
2023-12-01T18:01:13.292Z,12.57
2023-12-01T18:03:40.448Z,10.05
2023-12-01T18:06:07.406Z,10.90
2023-12-01T18:08:36.955Z,10.40
2023-12-01T18:11:03.465Z,10.10
2023-12-01T18:13:29.926Z,10.75
2023-12-01T18:15:56.738Z,11.13
2023-12-01T18:18:23.427Z,9.55
2023-12-01T18:20:50.324Z,12.35
2023-12-01T18:23:16.972Z,10.80
2023-12-01T18:25:43.542Z,12.23
2023-12-01T18:28:10.126Z,10.27
2023-12-01T18:30:36.610Z,9.90
2023-12-01T18:33:03.435Z,10.77
2023-12-01T18:35:30.123Z,11.48
2023-12-01T18:37:56.702Z,10.10
2023-12-01T18:40:23.305Z,10.40
2023-12-01T18:42:49.916Z,11.45
2023-12-01T18:45:16.521Z,9.63
2023-12-01T18:47:43.004Z,11.57
2023-12-01T18:50:09.741Z,11.43
2023-12-01T18:52:36.330Z,9.57
2023-12-01T18:55:03.798Z,12.02
2023-12-01T18:57:30.441Z,10.65
2023-12-01T18:59:57.112Z,9.63
2023-12-01T19:02:23.719Z,10.95
2023-12-01T19:04:50.251Z,11.57
2023-12-01T19:07:16.741Z,10.75
2023-12-01T19:09:43.463Z,11.45
2023-12-01T19:12:10.044Z,10.60
2023-12-01T19:14:37.141Z,11.48
2023-12-01T19:17:03.906Z,10.40
2023-12-01T19:19:30.423Z,9.43
2023-12-01T19:21:57.046Z,10.60
2023-12-01T19:24:23.574Z,10.55
2023-12-01T19:26:50.161Z,10.43
2023-12-01T19:29:17.536Z,8.35
2023-12-01T19:31:44.084Z,11.98
2023-12-01T19:34:10.707Z,9.05
2023-12-01T19:36:40.018Z,10.05
2023-12-01T19:39:06.732Z,9.82
2023-12-01T19:41:33.179Z,10.38
2023-12-01T19:44:02.625Z,9.40
2023-12-01T19:46:29.138Z,11.57
2023-12-01T19:48:56.986Z,10.43
2023-12-01T19:51:23.624Z,10.60
2023-12-01T19:53:50.248Z,9.80
2023-12-01T19:56:16.741Z,11.40
2023-12-01T19:58:43.698Z,10.88
2023-12-01T20:01:10.240Z,10.63
2023-12-01T20:03:37.661Z,9.77
2023-12-01T20:06:04.435Z,9.95
2023-12-01T20:08:31.032Z,11.20
2023-12-01T20:10:58.068Z,10.80
2023-12-01T20:13:24.700Z,11.15
2023-12-01T20:15:51.660Z,11.18
2023-12-01T20:18:19.270Z,10.05
2023-12-01T20:20:46.045Z,12.55
2023-12-01T20:23:13.047Z,11.00
2023-12-01T20:25:39.589Z,13.38
2023-12-01T20:28:06.052Z,11.63
2023-12-01T20:30:32.582Z,11.05
2023-12-01T20:32:59.473Z,10.77
2023-12-01T20:35:26.243Z,10.43
2023-12-01T20:37:54.128Z,10.13
2023-12-01T20:40:21.661Z,13.43
2023-12-01T20:42:48.426Z,13.30
2023-12-01T20:45:14.955Z,12.05
2023-12-01T20:47:41.633Z,9.65
2023-12-01T20:50:09.191Z,11.55
2023-12-01T20:52:35.877Z,10.63
2023-12-01T20:55:02.366Z,10.45
2023-12-01T20:57:28.894Z,11.02
2023-12-01T20:59:56.829Z,9.65
2023-12-01T21:02:23.352Z,11.10
2023-12-01T21:04:49.853Z,12.18
2023-12-01T21:07:16.520Z,11.88
2023-12-01T21:09:42.969Z,12.65
2023-12-01T21:12:09.553Z,11.30
2023-12-01T21:14:36.071Z,11.07
2023-12-01T21:17:02.611Z,12.30
2023-12-01T21:19:29.239Z,12.07
2023-12-01T21:21:55.889Z,9.52
2023-12-01T21:24:22.493Z,10.30
2023-12-01T21:26:50.318Z,10.93
2023-12-01T21:29:17.051Z,8.93
2023-12-01T21:31:43.553Z,12.38
2023-12-01T21:34:10.370Z,11.15
2023-12-01T21:36:36.908Z,10.88
2023-12-01T21:39:03.616Z,10.48
2023-12-01T21:41:30.133Z,11.02
2023-12-01T21:43:56.757Z,11.75
2023-12-01T21:46:23.277Z,11.07
2023-12-01T21:48:49.871Z,11.23
2023-12-01T21:51:16.637Z,10.57
2023-12-01T21:53:43.119Z,12.40
2023-12-01T21:56:09.862Z,9.55
2023-12-01T21:58:36.394Z,12.25
2023-12-01T22:01:02.876Z,14.85
2023-12-01T22:03:29.493Z,12.23
2023-12-01T22:05:56.905Z,12.40
2023-12-01T22:08:24.251Z,12.25
2023-12-01T22:10:50.873Z,12.25
2023-12-01T22:13:17.328Z,18.30
2023-12-01T22:15:43.782Z,13.55
2023-12-01T22:18:11.036Z,15.23
2023-12-01T22:20:37.700Z,16.40
2023-12-01T22:23:04.189Z,14.88
2023-12-01T22:25:30.641Z,18.58
2023-12-01T22:27:57.245Z,14.38
2023-12-01T22:30:23.822Z,14.57
2023-12-01T22:32:50.587Z,16.55
2023-12-01T22:35:17.059Z,14.95
2023-12-01T22:37:43.772Z,15.80
2023-12-01T22:40:10.892Z,14.23
2023-12-01T22:42:37.350Z,15.43
2023-12-01T22:45:05.244Z,14.95
2023-12-01T22:47:31.971Z,14.88
2023-12-01T22:49:58.510Z,16.15
2023-12-01T22:52:25.083Z,16.08
2023-12-01T22:55:17.089Z,15.90
2023-12-01T22:57:43.730Z,14.55
2023-12-01T23:00:27.045Z,15.45
2023-12-01T23:02:59.629Z,14.43
2023-12-01T23:05:26.936Z,15.88
2023-12-01T23:07:55.192Z,14.90
2023-12-01T23:10:21.770Z,15.68
2023-12-01T23:12:48.841Z,15.80
2023-12-01T23:15:15.776Z,17.30
2023-12-01T23:17:42.661Z,18.15
2023-12-01T23:20:10.654Z,16.08
2023-12-01T23:22:37.520Z,19.05
2023-12-01T23:25:06.400Z,16.00
2023-12-01T23:27:35.944Z,16.30
2023-12-01T23:30:03.000Z,18.70
2023-12-01T23:32:29.805Z,16.80
2023-12-01T23:34:56.423Z,15.98
2023-12-01T23:37:23.170Z,17.48
2023-12-01T23:39:50.509Z,17.05
2023-12-01T23:42:17.419Z,16.65
2023-12-01T23:44:44.164Z,17.05
2023-12-01T23:47:10.828Z,16.77
2023-12-01T23:49:37.610Z,17.10
2023-12-01T23:52:04.516Z,16.15
2023-12-01T23:54:31.393Z,18.15
2023-12-01T23:56:58.098Z,20.77
2023-12-01T23:59:24.789Z,17.95
